Ottawa, OH (45875)

1:32 AM EST on February 09, 2016 (GMT -0500)
Ottawa | | Change Station
CLOSE
Current Station
Personal Weather Station
Location: Ottawa, OH
Elevation: 728 ft
Nearby Weather Stations

Elev 728 ft 41.02 °N, 84.05 °W | Updated 7 seconds ago

Overcast
Overcast
30.7 °F
Feels Like 23 °F
N
8.7
Wind Variable Wind from WSW
Gusts 9.8 mph

Today
High -- | Low -- °F
--% Chance of Precip.
Yesterday
High -- | Low -- °F
Precip. -- in
Pressure 29.62 in
Visibility 8.0 miles
Clouds Overcast 1200 ft
Windchill 23 °F
Dew Point 24 °F
Humidity 75%
Rainfall 0.00 in
Snow Depth Not available.
7:38 AM 6:02 PM
New Moon, 1% visible
METAR KFDY 090553Z AUTO 27011KT 8SM OVC012 00/M03 A2961 RMK AO2 SLP029 T00001033 10006 21011 55004 TSNO
Pressure 29.62 in
Visibility 8.0 miles
Clouds Overcast 1200 ft
Windchill 23 °F
Dew Point 24 °F
Humidity 75%
Rainfall 0.00 in
Snow Depth Not available.
7:38 AM 6:02 PM
New Moon, 1% visible
METAR KFDY 090553Z AUTO 27011KT 8SM OVC012 00/M03 A2961 RMK AO2 SLP029 T00001033 10006 21011 55004 TSNO

10-Day Weather Forecast

Almanac

Astronomy

Feb. 09, 2016 Rise Set
Actual Time
Civil Twilight
Nautical Twilight
Astronomical Twilight
Moon
Length of Visible Light
Length of Day
Tomorrow will be .
, % of the Moon is Illuminated

Today's Extremes

State Highs State Lows

Community

WunderPhotos

Upload Photos

1,891,571 photos uploaded!

WunderBlog® & News

Nearby

Air Quality

  Air Quality AQ Index Pollutant
Not available.

Snow Depth

Station Depth Elevation

Earthquake Activity

City Distance Mag. Time & Date
Minimum magnitude displayed is 2.5.

Coastal Water Temperatures

Place Temperature

Stations

Nearby Weather Stations

Station Location Temp. Windchill Dew Point Humidity Wind Precip. Elev Updated Type
                   

Watches & Warnings

There are currently no watches in effect.